Time;durP1;ratioP1;P1;durP2;ratioP2;P2;SDS_P1;SDS_P2;PMS_P1;PMS_P2;Temp;Humidity;BMP_temperature;BMP_pressure;BME280_temperature;BME280_humidity;BME280_pressure;Samples;Min_cycle;Max_cycle;Signal;HPM_P1;HPM_P2
2022/04/02 00:02:22;;;;;;;19.60;13.38;;;1.50;99.90;;;;;;4941694;29;20027;-88
2022/04/02 00:04:48;;;;;;;19.58;12.95;;;1.50;99.90;;;;;;4938752;29;20449;-88
2022/04/02 00:07:14;;;;;;;18.95;12.15;;;1.50;99.90;;;;;;4949794;29;20185;-87
2022/04/02 00:09:40;;;;;;;19.02;12.68;;;1.50;99.90;;;;;;4938686;29;20115;-88
2022/04/02 00:12:08;;;;;;;18.77;13.05;;;1.50;99.90;;;;;;4954677;29;20031;-88
2022/04/02 00:14:49;;;;;;;20.15;12.60;;;1.50;99.90;;;;;;4941593;28;20058;-87
2022/04/02 00:17:16;;;;;;;20.45;12.57;;;1.40;99.90;;;;;;4945819;29;20028;-88
2022/04/02 00:19:41;;;;;;;21.73;12.73;;;1.40;99.90;;;;;;4944755;29;20035;-88
2022/04/02 00:22:07;;;;;;;22.10;13.25;;;1.50;99.90;;;;;;4942642;29;20039;-87
2022/04/02 00:24:32;;;;;;;17.63;12.05;;;1.50;99.90;;;;;;4949552;29;20030;-87
2022/04/02 00:26:58;;;;;;;18.05;12.38;;;1.40;99.90;;;;;;4941017;29;20517;-88
2022/04/02 00:29:24;;;;;;;19.65;12.25;;;1.40;99.90;;;;;;4943009;29;20049;-87
2022/04/02 00:31:49;;;;;;;19.23;12.55;;;1.50;99.90;;;;;;4938743;29;20028;-88
2022/04/02 00:34:15;;;;;;;18.88;12.30;;;1.40;99.90;;;;;;4938622;29;20027;-87
2022/04/02 00:36:41;;;;;;;23.77;13.27;;;1.50;99.90;;;;;;4937179;29;20653;-88
2022/04/02 00:39:11;;;;;;;21.80;12.65;;;1.40;99.90;;;;;;4932123;29;20036;-87
2022/04/02 00:41:37;;;;;;;18.42;12.35;;;1.40;99.90;;;;;;4936799;29;20042;-87
2022/04/02 00:44:12;;;;;;;22.60;12.98;;;1.40;99.90;;;;;;4941675;29;20032;-87
2022/04/02 00:46:42;;;;;;;20.52;12.27;;;1.40;99.90;;;;;;4936686;29;20083;-88
2022/04/02 00:49:09;;;;;;;18.65;11.88;;;1.40;99.90;;;;;;4941197;29;20078;-87
2022/04/02 00:51:41;;;;;;;21.38;12.50;;;1.40;99.90;;;;;;4935889;28;20048;-87
2022/04/02 00:54:11;;;;;;;16.30;11.25;;;1.30;99.90;;;;;;4931546;29;20031;-88
2022/04/02 00:56:38;;;;;;;18.63;11.43;;;1.30;99.90;;;;;;4937711;29;20546;-89
2022/04/02 00:59:08;;;;;;;19.15;12.35;;;1.30;99.90;;;;;;4948075;29;20035;-88
2022/04/02 01:01:35;;;;;;;19.17;12.00;;;1.30;99.90;;;;;;4940886;29;20032;-87
2022/04/02 01:04:02;;;;;;;17.20;12.13;;;1.40;99.90;;;;;;4939242;29;20057;-88
2022/04/02 01:06:37;;;;;;;19.75;12.48;;;1.30;99.90;;;;;;4941652;29;20052;-87
2022/04/02 01:09:05;;;;;;;16.00;11.63;;;1.30;99.90;;;;;;4948943;29;20031;-89
2022/04/02 01:11:38;;;;;;;18.42;12.23;;;1.30;99.90;;;;;;4949486;29;20141;-87
2022/04/02 01:14:04;;;;;;;18.70;12.05;;;1.30;99.90;;;;;;4949629;28;20016;-87
2022/04/02 01:16:33;;;;;;;18.33;11.70;;;1.40;99.90;;;;;;4940539;29;20024;-86
2022/04/02 01:19:01;;;;;;;19.13;11.80;;;1.30;99.90;;;;;;4942290;29;20469;-87
2022/04/02 01:21:36;;;;;;;18.77;12.00;;;1.20;99.90;;;;;;4937363;29;20422;-87
2022/04/02 01:24:05;;;;;;;17.63;12.52;;;1.30;99.90;;;;;;4939066;29;20446;-88
2022/04/02 01:26:42;;;;;;;19.80;12.05;;;1.30;99.90;;;;;;4935720;29;20402;-87
2022/04/02 01:29:08;;;;;;;17.63;10.90;;;1.20;99.90;;;;;;4932331;29;20061;-88
2022/04/02 01:31:36;;;;;;;19.75;11.70;;;1.30;99.90;;;;;;4936534;29;20024;-87
2022/04/02 01:34:02;;;;;;;21.05;11.30;;;1.30;99.90;;;;;;4945238;28;20175;-87
2022/04/02 01:36:45;;;;;;;20.40;12.68;;;1.30;99.90;;;;;;4934562;29;20035;-87
2022/04/02 01:39:31;;;;;;;18.00;11.50;;;1.20;99.90;;;;;;4933634;29;20039;-88
2022/04/02 01:42:17;;;;;;;17.38;10.23;;;1.20;99.90;;;;;;4939702;29;20460;-88
2022/04/02 01:44:51;;;;;;;22.73;11.30;;;1.30;99.90;;;;;;4920712;29;20040;-87
2022/04/02 01:47:22;;;;;;;20.92;10.50;;;1.10;99.90;;;;;;4943565;29;20027;-87
2022/04/02 01:49:57;;;;;;;20.25;10.95;;;1.10;99.90;;;;;;4940561;29;20110;-87
2022/04/02 01:52:38;;;;;;;20.70;10.43;;;1.10;99.90;;;;;;4936986;29;20031;-89
2022/04/02 01:55:19;;;;;;;18.23;9.45;;;1.00;99.90;;;;;;4938137;29;20039;-87
2022/04/02 01:57:45;;;;;;;18.73;9.98;;;1.00;99.90;;;;;;4937511;29;20027;-87
2022/04/02 02:00:11;;;;;;;16.02;9.23;;;1.00;99.90;;;;;;4938421;29;20095;-88
2022/04/02 02:02:39;;;;;;;16.33;9.02;;;0.90;99.90;;;;;;4936615;29;20035;-87
2022/04/02 02:05:05;;;;;;;21.50;9.15;;;0.90;99.90;;;;;;4940386;28;20032;-87
2022/04/02 02:07:31;;;;;;;12.18;8.70;;;0.90;99.90;;;;;;4929570;29;20035;-88
2022/04/02 02:09:57;;;;;;;22.83;10.25;;;0.90;99.90;;;;;;4926655;29;20071;-87
2022/04/02 02:12:23;;;;;;;15.38;9.38;;;0.90;99.90;;;;;;4936612;29;20425;-87
2022/04/02 02:14:49;;;;;;;16.90;8.95;;;0.90;99.90;;;;;;4940592;28;20070;-88
2022/04/02 02:17:15;;;;;;;13.35;7.57;;;0.90;99.90;;;;;;4940666;29;20072;-87
2022/04/02 02:19:41;;;;;;;14.88;8.48;;;1.00;99.90;;;;;;4946188;29;20024;-86
2022/04/02 02:22:06;;;;;;;12.07;7.75;;;0.80;99.90;;;;;;4942002;29;20385;-87
2022/04/02 02:24:32;;;;;;;19.60;8.38;;;0.90;99.90;;;;;;4945193;28;20019;-85
2022/04/02 02:26:58;;;;;;;14.13;7.57;;;0.80;99.90;;;;;;4950299;29;20050;-88
2022/04/02 02:29:24;;;;;;;21.17;8.13;;;0.80;99.90;;;;;;4944195;29;20437;-87
2022/04/02 02:31:49;;;;;;;18.15;8.77;;;0.80;99.90;;;;;;4941945;29;20031;-87
2022/04/02 02:37:00;;;;;;;18.13;8.98;;;0.80;99.90;;;;;;4928215;29;20051;-87
2022/04/02 02:39:26;;;;;;;17.73;9.50;;;0.80;99.90;;;;;;4931907;29;20034;-87
2022/04/02 02:41:51;;;;;;;19.63;8.77;;;0.80;99.90;;;;;;4945166;29;20494;-87
2022/04/02 02:44:17;;;;;;;15.73;9.32;;;0.80;99.90;;;;;;4940124;29;20023;-86
2022/04/02 02:46:43;;;;;;;13.18;9.25;;;0.80;99.90;;;;;;4936733;29;20051;-87
2022/04/02 02:49:08;;;;;;;19.10;10.13;;;0.80;99.90;;;;;;4930607;29;20031;-88
2022/04/02 02:51:34;;;;;;;16.30;9.02;;;0.80;99.90;;;;;;4936738;29;20016;-87
2022/04/02 02:53:59;;;;;;;17.80;9.60;;;0.90;99.90;;;;;;4938882;29;20431;-87
2022/04/02 02:56:25;;;;;;;17.10;9.55;;;0.90;99.90;;;;;;4943068;29;20042;-88
2022/04/02 02:58:50;;;;;;;16.40;9.15;;;0.90;99.90;;;;;;4937324;29;20035;-88
2022/04/02 03:01:16;;;;;;;21.85;9.38;;;0.80;99.90;;;;;;4944249;29;20051;-87
2022/04/02 03:03:42;;;;;;;15.68;8.68;;;0.80;99.90;;;;;;4942986;29;20027;-86
2022/04/02 03:06:10;;;;;;;15.90;9.10;;;0.80;99.90;;;;;;4937439;29;20047;-88
2022/04/02 03:08:36;;;;;;;18.52;9.30;;;0.90;99.90;;;;;;4929869;29;20024;-87
2022/04/02 03:11:02;;;;;;;20.25;9.65;;;0.80;99.90;;;;;;4935025;29;20123;-87
2022/04/02 03:13:27;;;;;;;21.33;9.88;;;0.80;99.90;;;;;;4941045;29;20024;-88
2022/04/02 03:15:58;;;;;;;18.77;9.63;;;0.70;99.90;;;;;;4943314;29;20060;-87
2022/04/02 03:18:23;;;;;;;18.45;9.73;;;0.80;99.90;;;;;;4941326;29;20402;-87
2022/04/02 03:20:49;;;;;;;16.90;9.95;;;0.70;99.90;;;;;;4939661;29;20026;-87
2022/04/02 03:23:15;;;;;;;23.00;11.40;;;0.90;99.90;;;;;;4948980;29;20023;-87
2022/04/02 03:25:40;;;;;;;22.77;11.40;;;0.90;99.90;;;;;;4935838;29;20039;-87
2022/04/02 03:28:09;;;;;;;22.80;11.45;;;1.00;99.90;;;;;;4942927;29;20482;-87
2022/04/02 03:30:35;;;;;;;23.17;11.13;;;1.00;99.90;;;;;;4938171;29;20032;-87
2022/04/02 03:33:00;;;;;;;19.85;10.70;;;1.00;99.90;;;;;;4939439;29;20034;-86
2022/04/02 03:35:26;;;;;;;21.52;10.80;;;1.10;99.90;;;;;;4946836;29;20027;-88
2022/04/02 03:37:55;;;;;;;18.20;10.63;;;1.10;99.90;;;;;;4942917;29;20110;-86
2022/04/02 03:40:24;;;;;;;19.48;10.40;;;1.10;99.90;;;;;;4938527;29;20030;-87
2022/04/02 03:42:50;;;;;;;18.23;10.40;;;1.20;99.90;;;;;;4937079;29;20060;-86
2022/04/02 03:45:18;;;;;;;16.98;10.55;;;1.20;99.90;;;;;;4936084;29;20028;-86
2022/04/02 03:47:45;;;;;;;16.27;9.40;;;1.20;99.90;;;;;;4941687;29;20486;-87
2022/04/02 03:50:11;;;;;;;14.75;9.25;;;1.20;99.90;;;;;;4944875;28;20476;-87
2022/04/02 03:52:37;;;;;;;16.13;9.63;;;1.30;99.90;;;;;;4947088;29;20024;-87
2022/04/02 03:55:05;;;;;;;15.52;9.02;;;1.20;99.90;;;;;;4943775;29;20408;-87
2022/04/02 03:57:37;;;;;;;13.35;8.70;;;1.20;99.90;;;;;;4952274;29;20380;-87
2022/04/02 04:00:06;;;;;;;13.63;8.68;;;1.20;99.90;;;;;;4956097;29;20098;-87
2022/04/02 04:02:32;;;;;;;16.08;9.68;;;1.20;99.90;;;;;;4953134;29;20036;-86
2022/04/02 04:04:59;;;;;;;17.80;10.13;;;1.30;99.90;;;;;;4943123;29;20032;-87
2022/04/02 04:07:25;;;;;;;13.85;9.43;;;1.20;99.90;;;;;;4944566;29;20031;-86
2022/04/02 04:09:50;;;;;;;13.90;9.45;;;1.20;99.90;;;;;;4932751;29;20032;-87
2022/04/02 04:12:20;;;;;;;14.18;10.25;;;1.20;99.90;;;;;;4940233;29;20031;-86
2022/04/02 04:14:45;;;;;;;23.73;10.35;;;1.20;99.90;;;;;;4951284;28;20019;-85
2022/04/02 04:17:11;;;;;;;15.02;9.70;;;1.20;99.90;;;;;;4962163;29;20027;-86
2022/04/02 04:19:37;;;;;;;16.52;9.55;;;1.30;99.90;;;;;;4966675;28;20043;-86
2022/04/02 04:22:03;;;;;;;15.93;9.88;;;1.30;99.90;;;;;;4958497;28;20102;-86
2022/04/02 04:24:30;;;;;;;15.82;9.73;;;1.30;99.90;;;;;;4956690;28;20062;-86
2022/04/02 04:26:56;;;;;;;16.63;9.77;;;1.30;99.90;;;;;;4957822;28;20046;-85
2022/04/02 04:29:21;;;;;;;16.63;8.95;;;1.40;99.90;;;;;;4943437;29;20032;-87
2022/04/02 04:31:47;;;;;;;14.90;9.07;;;1.30;99.90;;;;;;4944438;29;20034;-88
2022/04/02 04:34:12;;;;;;;15.48;9.77;;;1.30;99.90;;;;;;4943360;29;20079;-86
2022/04/02 04:36:38;;;;;;;13.07;9.30;;;1.30;99.90;;;;;;4944778;29;20032;-85
2022/04/02 04:39:05;;;;;;;12.77;9.43;;;1.30;99.90;;;;;;4940612;29;20102;-87
2022/04/02 04:41:31;;;;;;;12.93;8.75;;;1.40;99.90;;;;;;4941765;29;20066;-87
2022/04/02 04:43:56;;;;;;;13.65;8.77;;;1.40;99.90;;;;;;4950070;28;20430;-86
2022/04/02 04:46:22;;;;;;;13.55;8.80;;;1.50;99.90;;;;;;4941924;29;20031;-87
2022/04/02 04:48:48;;;;;;;13.15;8.52;;;1.40;99.90;;;;;;4931608;29;20035;-87
2022/04/02 04:51:14;;;;;;;11.35;8.70;;;1.40;99.90;;;;;;4954744;29;20028;-87
2022/04/02 04:53:40;;;;;;;14.85;9.48;;;1.40;99.90;;;;;;4940916;29;20490;-86
2022/04/02 04:56:06;;;;;;;12.85;8.05;;;1.40;99.90;;;;;;4955085;29;20027;-87
2022/04/02 04:58:35;;;;;;;12.70;9.15;;;1.40;99.90;;;;;;4949499;29;20051;-87
2022/04/02 05:01:00;;;;;;;11.82;8.70;;;1.40;99.90;;;;;;4934373;29;20036;-87
2022/04/02 05:03:27;;;;;;;11.98;8.52;;;1.40;99.90;;;;;;4941553;29;20045;-87
2022/04/02 05:05:55;;;;;;;12.52;8.43;;;1.40;99.90;;;;;;4940427;29;20457;-87
2022/04/02 05:08:22;;;;;;;15.80;9.27;;;1.50;99.90;;;;;;4939260;29;20029;-87
2022/04/02 05:10:48;;;;;;;12.63;8.50;;;1.40;99.90;;;;;;4933976;29;20043;-87
2022/04/02 05:13:16;;;;;;;13.75;8.60;;;1.40;99.90;;;;;;4952876;28;20035;-86
2022/04/02 05:15:43;;;;;;;12.48;8.10;;;1.50;99.90;;;;;;5001311;23;20047;-87
2022/04/02 05:18:10;;;;;;;9.82;7.30;;;1.40;99.90;;;;;;4932109;29;20409;-87
2022/04/02 05:20:37;;;;;;;9.10;6.88;;;1.40;99.90;;;;;;4933338;29;20499;-86
2022/04/02 05:23:04;;;;;;;9.70;6.80;;;1.40;99.90;;;;;;4929239;29;20126;-87
2022/04/02 05:25:30;;;;;;;10.02;7.43;;;1.40;99.90;;;;;;4930460;29;20086;-87
2022/04/02 05:27:59;;;;;;;9.45;7.57;;;1.40;99.90;;;;;;4933966;29;20032;-88
2022/04/02 05:30:27;;;;;;;12.35;8.30;;;1.30;99.90;;;;;;4932007;29;20412;-88
2022/04/02 05:32:52;;;;;;;10.45;8.02;;;1.30;99.90;;;;;;4933866;29;20024;-88
2022/04/02 05:35:18;;;;;;;10.00;7.70;;;1.30;99.90;;;;;;4932344;29;20404;-89
2022/04/02 05:37:45;;;;;;;10.85;6.95;;;1.30;99.90;;;;;;4927631;29;20038;-87
2022/04/02 05:40:11;;;;;;;13.27;7.57;;;1.30;99.90;;;;;;4926225;29;20476;-87
2022/04/02 05:42:37;;;;;;;10.43;8.25;;;1.30;99.90;;;;;;4932047;29;20031;-87
2022/04/02 05:45:03;;;;;;;10.45;7.82;;;1.30;99.90;;;;;;4928764;29;20035;-88
2022/04/02 05:47:43;;;;;;;10.65;7.88;;;1.30;99.90;;;;;;4928662;29;20024;-87
2022/04/02 05:50:11;;;;;;;13.10;8.30;;;1.30;99.90;;;;;;4930066;29;20337;-89
2022/04/02 05:52:38;;;;;;;14.63;9.13;;;1.20;99.90;;;;;;4932620;29;20028;-89
2022/04/02 05:55:08;;;;;;;14.52;8.73;;;1.20;99.90;;;;;;4928502;29;20092;-90
2022/04/02 05:58:02;;;;;;;12.73;8.35;;;1.30;99.90;;;;;;4934238;29;20031;-88
2022/04/02 06:00:28;;;;;;;11.05;8.65;;;1.20;99.90;;;;;;4923779;29;20063;-89
2022/04/02 06:02:54;;;;;;;14.65;9.10;;;1.20;99.90;;;;;;4936147;29;20031;-88
2022/04/02 06:05:20;;;;;;;11.93;8.98;;;1.20;99.90;;;;;;4933322;29;20042;-90
2022/04/02 06:07:47;;;;;;;16.65;9.50;;;1.20;99.90;;;;;;4931066;29;20103;-88
2022/04/02 06:10:13;;;;;;;19.20;9.82;;;1.20;99.90;;;;;;4934357;29;20998;-89
2022/04/02 06:12:40;;;;;;;16.15;9.65;;;1.20;99.90;;;;;;4934031;29;20019;-89
2022/04/02 06:15:09;;;;;;;15.73;9.23;;;1.20;99.90;;;;;;4930400;29;20481;-90
2022/04/02 06:17:38;;;;;;;16.75;10.70;;;1.20;99.90;;;;;;4948255;29;20035;-88
2022/04/02 06:20:06;;;;;;;16.67;10.27;;;1.20;99.90;;;;;;4953212;29;20058;-88
2022/04/02 06:22:33;;;;;;;17.42;10.77;;;1.20;99.90;;;;;;4955418;29;20023;-87
2022/04/02 06:24:59;;;;;;;20.50;10.65;;;1.20;99.90;;;;;;4945427;29;20097;-89
2022/04/02 06:27:24;;;;;;;17.48;10.10;;;1.20;99.90;;;;;;4930059;29;20110;-88
2022/04/02 06:29:51;;;;;;;19.33;11.23;;;1.30;99.90;;;;;;4927469;29;20032;-89
2022/04/02 06:36:19;;;;;;;16.65;10.50;;;1.30;99.90;;;;;;4945411;28;20052;-92
2022/04/02 06:38:58;;;;;;;16.35;10.82;;;1.30;99.90;;;;;;4953126;28;20043;-91
2022/04/02 06:41:29;;;;;;;14.50;9.73;;;1.30;99.90;;;;;;4952335;28;20032;-91
2022/04/02 06:44:25;;;;;;;18.10;10.65;;;1.30;99.90;;;;;;4955162;28;20083;-92
2022/04/02 06:47:08;;;;;;;18.52;10.68;;;1.30;99.90;;;;;;4945848;28;20055;-91
2022/04/02 06:49:52;;;;;;;15.95;9.68;;;1.30;99.90;;;;;;4953364;28;20028;-92
2022/04/02 06:52:17;;;;;;;16.50;10.95;;;1.40;99.90;;;;;;4957423;28;20028;-89
2022/04/02 06:54:43;;;;;;;17.85;11.43;;;1.40;99.90;;;;;;4952191;28;20028;-90
2022/04/02 06:57:09;;;;;;;17.35;11.27;;;1.30;99.90;;;;;;4983214;23;20120;-85
2022/04/02 06:59:34;;;;;;;20.20;10.80;;;1.40;99.90;;;;;;4939751;29;20019;-87
2022/04/02 07:02:03;;;;;;;20.67;11.60;;;1.40;99.90;;;;;;4934904;29;20125;-86
2022/04/02 07:04:28;;;;;;;18.42;11.48;;;1.40;99.90;;;;;;4926485;29;20494;-88
2022/04/02 07:06:54;;;;;;;22.23;11.20;;;1.40;99.90;;;;;;4916114;29;20079;-89
2022/04/02 07:09:19;;;;;;;18.25;10.70;;;1.40;99.90;;;;;;4908329;29;20019;-90
2022/04/02 07:11:45;;;;;;;18.65;9.48;;;1.50;99.90;;;;;;4921503;29;20546;-88
2022/04/02 07:14:11;;;;;;;19.23;10.38;;;1.50;99.90;;;;;;4914814;29;20016;-89
2022/04/02 07:16:38;;;;;;;17.80;9.57;;;1.50;99.90;;;;;;4913941;29;20045;-90
2022/04/02 07:19:04;;;;;;;14.35;9.13;;;1.50;99.90;;;;;;4913783;29;20028;-89
2022/04/02 07:21:33;;;;;;;12.68;8.00;;;1.50;99.90;;;;;;4917168;29;20032;-89
2022/04/02 07:23:59;;;;;;;14.15;8.82;;;1.50;99.90;;;;;;4908255;29;20036;-86
2022/04/02 07:26:26;;;;;;;12.88;8.30;;;1.50;99.90;;;;;;4908042;29;20036;-90
2022/04/02 07:28:53;;;;;;;14.13;8.52;;;1.60;99.90;;;;;;4912146;29;20649;-89
2022/04/02 07:31:19;;;;;;;16.20;8.90;;;1.50;99.90;;;;;;4910552;29;20079;-89
2022/04/02 07:33:44;;;;;;;14.20;8.80;;;1.50;99.90;;;;;;4907091;29;20028;-89
2022/04/02 07:36:21;;;;;;;18.17;10.52;;;1.60;99.90;;;;;;4915900;29;20063;-89
2022/04/02 07:39:27;;;;;;;16.83;10.15;;;1.60;99.90;;;;;;4917456;29;20036;-90
2022/04/02 07:41:58;;;;;;;14.27;9.73;;;1.60;99.90;;;;;;4911081;29;20032;-89
2022/04/02 07:44:37;;;;;;;15.30;9.52;;;1.60;99.90;;;;;;4916521;29;20032;-87
2022/04/02 07:47:06;;;;;;;13.65;8.88;;;1.70;99.90;;;;;;4923227;29;20074;-89
2022/04/02 07:49:34;;;;;;;12.45;8.18;;;1.70;99.90;;;;;;4901736;29;20021;-85
2022/04/02 07:52:02;;;;;;;13.50;8.05;;;1.70;99.90;;;;;;4914266;29;20051;-91
2022/04/02 07:54:28;;;;;;;9.55;7.18;;;1.70;99.90;;;;;;4906788;29;20578;-93
2022/04/02 07:57:02;;;;;;;11.35;7.05;;;1.70;99.90;;;;;;4914772;29;20040;-90
2022/04/02 07:59:36;;;;;;;12.30;7.70;;;1.70;99.90;;;;;;4915853;29;20028;-89
2022/04/02 08:02:03;;;;;;;9.73;6.80;;;1.80;99.90;;;;;;4917301;29;20088;-85
2022/04/02 08:28:33;;;;;;;14.75;9.43;;;1.90;99.90;;;;;;4938981;29;20570;-88
2022/04/02 08:31:43;;;;;;;15.77;9.70;;;1.80;99.90;;;;;;4904572;29;20038;-89
2022/04/02 08:35:16;;;;;;;15.43;9.70;;;1.80;99.90;;;;;;4879967;29;20029;-88
2022/04/02 08:41:52;;;;;;;18.55;10.52;;;1.80;99.90;;;;;;4908551;29;20756;-88
2022/04/02 08:59:54;;;;;;;14.50;9.77;;;2.00;99.90;;;;;;4914864;29;20507;-86
2022/04/02 09:02:53;;;;;;;17.05;9.82;;;2.00;99.90;;;;;;4914790;29;20032;-87
2022/04/02 09:05:55;;;;;;;14.80;9.82;;;1.90;99.90;;;;;;4912964;29;20484;-87
2022/04/02 09:08:30;;;;;;;15.27;10.45;;;1.90;99.90;;;;;;4911366;29;20040;-88
2022/04/02 09:10:55;;;;;;;19.30;11.75;;;1.90;99.90;;;;;;4910213;29;20435;-88
2022/04/02 09:13:59;;;;;;;14.68;10.13;;;2.00;99.90;;;;;;4916872;29;20024;-88
2022/04/02 09:16:55;;;;;;;14.68;11.05;;;2.00;99.90;;;;;;4916354;29;20394;-87
2022/04/02 09:20:35;;;;;;;13.32;9.82;;;2.10;99.90;;;;;;4912963;29;20028;-89
2022/04/02 09:23:38;;;;;;;13.23;9.95;;;2.20;99.90;;;;;;4928616;29;20032;-89
2022/04/02 09:26:54;;;;;;;11.93;9.07;;;2.20;99.90;;;;;;4930763;29;20134;-90
2022/04/02 09:33:52;;;;;;;13.43;9.68;;;2.30;99.90;;;;;;4876001;29;20052;-90
2022/04/02 09:36:30;;;;;;;12.32;9.10;;;2.30;99.90;;;;;;4821802;29;20063;-91
2022/04/02 09:39:09;;;;;;;13.80;9.57;;;2.30;99.90;;;;;;4881414;29;20115;-90
2022/04/02 09:41:53;;;;;;;14.68;9.82;;;2.20;99.90;;;;;;4914463;29;20036;-93
2022/04/02 09:44:53;;;;;;;15.73;10.15;;;2.20;99.90;;;;;;4912298;29;20028;-94
2022/04/02 09:47:52;;;;;;;14.95;10.32;;;2.10;99.90;;;;;;4906751;29;20037;-92
2022/04/02 09:50:20;;;;;;;17.15;10.95;;;2.10;99.90;;;;;;4909272;29;20497;-93
2022/04/02 09:53:13;;;;;;;19.05;10.85;;;2.20;99.90;;;;;;4906013;29;20023;-93
2022/04/02 09:55:49;;;;;;;18.30;11.98;;;2.20;99.90;;;;;;4912647;29;20020;-93
2022/04/02 09:59:00;;;;;;;18.00;12.43;;;2.20;99.90;;;;;;4907684;29;20036;-92
2022/04/02 10:01:29;;;;;;;18.00;10.07;;;2.20;99.90;;;;;;4884454;29;20554;-92
2022/04/02 10:04:10;;;;;;;16.35;11.80;;;2.20;99.90;;;;;;4915781;29;20099;-93
2022/04/02 10:06:40;;;;;;;20.52;12.18;;;2.10;99.90;;;;;;4917156;29;20028;-92
2022/04/02 10:09:13;;;;;;;20.33;11.95;;;2.10;99.90;;;;;;4921113;29;20497;-92
2022/04/02 10:11:46;;;;;;;22.10;13.15;;;2.10;99.90;;;;;;4902484;29;20092;-90
2022/04/02 10:14:20;;;;;;;18.35;12.02;;;2.10;99.90;;;;;;4910544;29;20028;-86
2022/04/02 10:16:53;;;;;;;21.02;12.63;;;2.10;99.90;;;;;;4916730;29;20056;-91
2022/04/02 10:19:28;;;;;;;23.17;14.25;;;2.10;99.90;;;;;;4911250;29;20431;-91
2022/04/02 10:22:02;;;;;;;25.20;15.30;;;2.00;99.90;;;;;;4916099;29;20033;-91
2022/04/02 10:24:37;;;;;;;20.27;13.88;;;2.00;99.90;;;;;;4910198;29;20087;-90
2022/04/02 10:27:04;;;;;;;23.15;14.10;;;2.10;99.90;;;;;;4909675;29;20403;-91
2022/04/02 10:30:02;;;;;;;24.20;14.55;;;2.10;99.90;;;;;;4917579;29;20020;-92
2022/04/02 10:32:54;;;;;;;22.75;13.30;;;2.10;99.90;;;;;;4902576;29;20043;-90
2022/04/02 10:35:27;;;;;;;21.02;13.40;;;2.10;99.90;;;;;;4907422;29;20024;-91
2022/04/02 10:38:33;;;;;;;29.77;14.55;;;2.10;99.90;;;;;;4916148;29;20499;-91
2022/04/02 10:41:02;;;;;;;22.35;14.48;;;2.20;99.90;;;;;;4915310;29;20123;-91
2022/04/02 10:43:35;;;;;;;18.77;13.90;;;2.30;99.90;;;;;;4915395;29;20024;-91
2022/04/02 10:46:03;;;;;;;21.60;13.48;;;2.30;99.90;;;;;;4916690;29;20044;-88
2022/04/02 10:48:39;;;;;;;26.67;17.13;;;2.50;99.90;;;;;;4914207;29;20371;-91
2022/04/02 10:51:07;;;;;;;24.13;14.32;;;2.40;99.90;;;;;;4916713;29;20404;-91
2022/04/02 10:53:40;;;;;;;19.50;13.60;;;2.40;99.90;;;;;;4918499;29;20073;-91
2022/04/02 10:56:15;;;;;;;19.67;14.10;;;2.40;99.90;;;;;;4912607;29;20032;-92
2022/04/02 10:58:54;;;;;;;22.48;14.20;;;2.40;99.90;;;;;;4911267;29;20027;-91
2022/04/02 11:01:22;;;;;;;21.58;14.68;;;2.40;99.90;;;;;;4914487;29;20046;-93
2022/04/02 11:04:04;;;;;;;23.67;14.77;;;2.30;99.90;;;;;;4908597;29;20083;-91
2022/04/02 11:06:49;;;;;;;22.15;14.82;;;2.30;99.90;;;;;;4916134;29;20082;-89
2022/04/02 11:09:43;;;;;;;21.85;15.13;;;2.30;99.90;;;;;;4908167;29;20034;-90
2022/04/02 11:12:15;;;;;;;19.80;13.73;;;2.30;99.90;;;;;;4897007;29;20075;-90
2022/04/02 11:14:47;;;;;;;20.38;13.73;;;2.30;99.90;;;;;;4916029;29;20024;-89
2022/04/02 11:17:30;;;;;;;20.08;13.27;;;2.20;99.90;;;;;;4912968;29;20124;-89
2022/04/02 11:20:04;;;;;;;27.17;16.17;;;2.30;99.90;;;;;;4913268;29;20029;-90
2022/04/02 11:22:43;;;;;;;22.15;13.15;;;2.30;99.90;;;;;;4911432;29;20035;-90
2022/04/02 11:25:35;;;;;;;20.73;14.18;;;2.20;99.90;;;;;;4922497;29;20032;-91
2022/04/02 11:28:21;;;;;;;23.30;13.85;;;2.20;99.90;;;;;;4906504;29;20115;-88
2022/04/02 11:31:03;;;;;;;21.75;14.02;;;2.20;99.90;;;;;;4916603;29;20119;-88
2022/04/02 11:33:32;;;;;;;18.35;13.02;;;2.20;99.90;;;;;;4911971;29;20020;-91
2022/04/02 11:36:06;;;;;;;20.63;12.77;;;2.20;99.90;;;;;;4910609;29;20120;-89
2022/04/02 11:38:56;;;;;;;20.95;13.90;;;2.20;99.90;;;;;;4907885;29;20468;-89
2022/04/02 11:41:29;;;;;;;21.98;14.10;;;2.20;99.90;;;;;;4926955;29;20041;-89
2022/04/02 11:44:06;;;;;;;21.75;13.40;;;2.20;99.90;;;;;;4912746;29;20036;-92
2022/04/02 11:46:55;;;;;;;17.45;13.32;;;2.20;99.90;;;;;;4915924;29;20028;-91
2022/04/02 11:49:32;;;;;;;18.67;13.68;;;2.20;99.90;;;;;;4915185;29;20060;-89
2022/04/02 11:52:03;;;;;;;21.05;13.13;;;2.20;99.90;;;;;;4914943;29;20038;-91
2022/04/02 11:54:29;;;;;;;22.48;13.52;;;2.10;99.90;;;;;;4906134;29;20035;-91
2022/04/02 11:57:09;;;;;;;17.75;12.52;;;2.10;99.90;;;;;;4921528;29;20028;-92
2022/04/02 11:59:36;;;;;;;16.40;12.40;;;2.20;99.90;;;;;;4920271;29;20073;-93
2022/04/02 12:02:03;;;;;;;18.35;13.25;;;2.10;99.90;;;;;;4915170;29;20036;-90
2022/04/02 12:04:29;;;;;;;18.58;12.38;;;2.20;99.90;;;;;;4916878;29;20028;-91
2022/04/02 12:07:05;;;;;;;17.92;12.52;;;2.20;99.90;;;;;;4916404;29;20036;-90
2022/04/02 12:09:31;;;;;;;18.60;13.00;;;2.20;99.90;;;;;;4917350;29;20031;-93
2022/04/02 12:12:04;;;;;;;19.63;13.05;;;2.20;99.90;;;;;;4919873;29;20551;-91
2022/04/02 12:14:46;;;;;;;17.88;12.02;;;2.20;99.90;;;;;;4920041;29;20031;-92
2022/04/02 12:17:19;;;;;;;20.77;12.65;;;2.20;99.90;;;;;;4910286;29;20046;-92
2022/04/02 12:19:52;;;;;;;17.33;12.20;;;2.20;99.90;;;;;;4918551;29;20107;-90
2022/04/02 12:22:27;;;;;;;16.83;11.98;;;2.30;99.90;;;;;;4912071;29;20063;-90
2022/04/02 12:24:55;;;;;;;18.65;12.77;;;2.30;99.90;;;;;;4931264;29;20028;-92
2022/04/02 12:27:24;;;;;;;17.20;11.88;;;2.40;99.90;;;;;;4914854;29;20088;-91
2022/04/02 12:29:55;;;;;;;15.65;11.48;;;2.40;99.90;;;;;;4916297;29;20024;-91
2022/04/02 12:32:32;;;;;;;14.90;10.10;;;2.30;99.90;;;;;;4917652;29;20028;-92
2022/04/02 12:35:03;;;;;;;19.88;12.73;;;2.40;99.90;;;;;;4911208;29;20032;-91
2022/04/02 12:37:31;;;;;;;17.17;12.75;;;2.40;99.90;;;;;;4909418;29;20035;-91
2022/04/02 12:40:22;;;;;;;17.80;12.13;;;2.50;99.90;;;;;;4912567;29;20091;-91
2022/04/02 12:42:52;;;;;;;17.45;12.55;;;2.40;99.90;;;;;;4918030;29;20052;-92
2022/04/02 12:45:21;;;;;;;17.50;13.10;;;2.40;99.90;;;;;;4918861;29;20119;-93
2022/04/02 12:47:57;;;;;;;18.90;11.75;;;2.40;99.90;;;;;;4919735;28;20031;-87
2022/04/02 12:50:23;;;;;;;17.70;12.52;;;2.40;99.90;;;;;;4936759;28;20063;-88
2022/04/02 12:52:50;;;;;;;17.10;12.07;;;2.40;99.90;;;;;;4935249;28;20044;-88
2022/04/02 12:55:27;;;;;;;17.10;12.48;;;2.40;99.90;;;;;;4936605;28;20020;-89
2022/04/02 12:58:10;;;;;;;18.08;12.38;;;2.30;99.90;;;;;;4938067;28;20032;-93
2022/04/02 13:00:50;;;;;;;18.55;12.63;;;2.30;99.90;;;;;;4922174;29;20035;-94
2022/04/02 13:03:34;;;;;;;18.17;12.85;;;2.30;99.90;;;;;;4918842;29;20490;-93
2022/04/02 13:06:02;;;;;;;22.35;12.20;;;2.30;99.90;;;;;;4923776;29;20032;-90
2022/04/02 13:08:32;;;;;;;16.38;12.15;;;2.30;99.90;;;;;;4912244;29;20039;-91
2022/04/02 13:14:02;;;;;;;21.65;13.27;;;2.30;99.90;;;;;;4917464;29;20043;-91
2022/04/02 13:22:15;;;;;;;17.35;12.63;;;2.40;99.90;;;;;;4911280;29;20039;-91
2022/04/02 13:24:57;;;;;;;20.52;12.38;;;2.40;99.90;;;;;;4911238;29;20035;-90
2022/04/02 13:27:32;;;;;;;16.48;12.40;;;2.40;99.90;;;;;;4914925;29;20372;-92
2022/04/02 13:30:03;;;;;;;19.48;12.73;;;2.50;99.90;;;;;;4913241;29;20043;-90
2022/04/02 13:32:56;;;;;;;17.02;12.98;;;2.50;99.90;;;;;;4909713;29;20115;-92
2022/04/02 13:56:18;;;;;;;18.67;13.43;;;2.60;99.90;;;;;;4931454;29;20043;-91
2022/04/02 13:58:48;;;;;;;16.80;12.57;;;2.60;99.90;;;;;;4936078;29;20667;-92
2022/04/02 14:01:20;;;;;;;20.77;13.10;;;2.60;99.90;;;;;;4938232;29;20024;-93
2022/04/02 14:04:00;;;;;;;17.13;12.85;;;2.60;99.90;;;;;;4910057;29;20465;-93
2022/04/02 14:06:26;;;;;;;20.30;13.80;;;2.70;99.90;;;;;;4914785;29;20040;-93
2022/04/02 14:08:58;;;;;;;18.60;12.82;;;2.60;99.90;;;;;;4914298;29;20037;-93
2022/04/02 14:11:39;;;;;;;21.15;13.55;;;2.70;99.90;;;;;;4919136;29;20047;-92
2022/04/02 14:14:10;;;;;;;20.27;13.60;;;2.70;99.90;;;;;;4923317;29;20036;-93
2022/04/02 14:16:40;;;;;;;21.80;14.13;;;2.70;99.90;;;;;;4921222;29;20035;-92
2022/04/02 14:19:10;;;;;;;20.27;14.02;;;2.70;99.90;;;;;;4912826;29;20067;-93
2022/04/02 14:21:40;;;;;;;21.08;14.63;;;2.70;99.90;;;;;;4918914;29;20103;-93
2022/04/02 14:24:12;;;;;;;24.95;15.88;;;2.70;99.90;;;;;;4913740;29;20088;-93
2022/04/02 14:26:57;;;;;;;20.92;13.93;;;2.70;99.90;;;;;;4913501;29;20036;-91
2022/04/02 14:30:06;;;;;;;24.27;15.00;;;2.70;99.90;;;;;;4923316;29;20104;-93
2022/04/02 14:32:53;;;;;;;22.17;14.90;;;2.70;99.90;;;;;;4923047;29;20028;-92